createdAt,value
2022-08-27T00:02:24.301Z,10.70
2022-08-27T00:04:53.048Z,10.70
2022-08-27T00:07:21.837Z,11.70
2022-08-27T00:09:50.626Z,12.20
2022-08-27T00:12:19.627Z,11.00
2022-08-27T00:14:48.511Z,9.40
2022-08-27T00:17:17.710Z,10.20
2022-08-27T00:19:46.500Z,12.60
2022-08-27T00:22:15.187Z,11.60
2022-08-27T00:24:48.988Z,11.30
2022-08-27T00:27:19.558Z,9.70
2022-08-27T00:29:49.213Z,13.30
2022-08-27T00:32:18.335Z,9.20
2022-08-27T00:34:47.225Z,12.50
2022-08-27T00:37:15.911Z,10.70
2022-08-27T00:39:44.806Z,11.50
2022-08-27T00:42:14.137Z,11.00
2022-08-27T00:44:43.301Z,9.70
2022-08-27T00:47:18.024Z,11.60
2022-08-27T00:50:07.094Z,11.00
2022-08-27T00:52:47.252Z,9.50
2022-08-27T00:55:27.507Z,14.30
2022-08-27T00:58:11.899Z,11.70
2022-08-27T01:00:41.825Z,12.60
2022-08-27T01:03:10.567Z,11.70
2022-08-27T01:05:40.382Z,16.10
2022-08-27T01:08:17.873Z,12.90
2022-08-27T01:10:48.142Z,11.80
2022-08-27T01:13:22.255Z,8.90
2022-08-27T01:16:12.399Z,10.90
2022-08-27T01:18:41.498Z,9.90
2022-08-27T01:21:18.886Z,11.70
2022-08-27T01:23:56.587Z,11.50
2022-08-27T01:26:26.055Z,11.70
2022-08-27T01:28:55.291Z,12.60
2022-08-27T01:31:24.507Z,11.20
2022-08-27T01:34:00.701Z,11.90
2022-08-27T01:36:30.161Z,11.50
2022-08-27T01:38:59.564Z,11.40
2022-08-27T01:41:29.480Z,11.50
2022-08-27T01:43:58.272Z,11.30
2022-08-27T01:46:29.175Z,13.60
2022-08-27T01:48:58.104Z,15.00
2022-08-27T01:51:26.893Z,12.00
2022-08-27T01:53:55.682Z,15.00
2022-08-27T01:56:26.109Z,11.20
2022-08-27T01:58:54.897Z,13.20
2022-08-27T02:01:24.010Z,13.50
2022-08-27T02:03:52.887Z,13.40
2022-08-27T02:06:21.673Z,14.60
2022-08-27T02:08:50.973Z,12.40
2022-08-27T02:11:19.661Z,11.80
2022-08-27T02:13:48.348Z,13.50
2022-08-27T02:16:17.176Z,10.50
2022-08-27T02:18:46.440Z,12.00
2022-08-27T02:21:15.640Z,13.10
2022-08-27T02:23:45.757Z,11.00
2022-08-27T02:26:14.546Z,13.30
2022-08-27T02:28:44.051Z,14.00
2022-08-27T02:31:12.865Z,12.70
2022-08-27T02:33:41.731Z,13.10
2022-08-27T02:36:12.178Z,12.70
2022-08-27T02:38:41.974Z,12.50
2022-08-27T02:41:10.939Z,12.90
2022-08-27T02:43:39.858Z,14.80
2022-08-27T02:46:09.193Z,12.90
2022-08-27T02:48:40.210Z,16.00
2022-08-27T02:51:09.182Z,13.10
2022-08-27T02:53:38.497Z,12.90
2022-08-27T02:56:07.986Z,13.70
2022-08-27T02:58:37.201Z,12.80
2022-08-27T03:01:06.093Z,14.30
2022-08-27T03:03:40.106Z,12.70
2022-08-27T03:06:09.713Z,14.80
2022-08-27T03:08:52.724Z,11.40
2022-08-27T03:11:26.236Z,13.10
2022-08-27T03:13:55.024Z,12.10
2022-08-27T03:16:23.964Z,13.10
2022-08-27T03:18:53.524Z,14.00
2022-08-27T03:21:25.710Z,14.90
2022-08-27T03:23:54.585Z,17.40
2022-08-27T03:26:23.580Z,15.40
2022-08-27T03:28:52.369Z,13.90
2022-08-27T03:31:28.752Z,17.00
2022-08-27T03:34:01.894Z,16.80
2022-08-27T03:36:31.946Z,15.00
2022-08-27T03:39:00.739Z,17.10
2022-08-27T03:41:45.527Z,14.30
2022-08-27T03:44:21.520Z,15.00
2022-08-27T03:46:52.854Z,15.70
2022-08-27T03:49:23.328Z,18.30
2022-08-27T03:51:53.573Z,22.90
2022-08-27T03:54:22.244Z,17.20
2022-08-27T03:56:51.750Z,16.20
2022-08-27T03:59:20.539Z,16.70
2022-08-27T04:01:49.392Z,15.70
2022-08-27T04:04:18.221Z,16.50
2022-08-27T04:06:47.119Z,14.40
2022-08-27T04:09:15.912Z,17.40
2022-08-27T04:11:45.817Z,18.50
2022-08-27T04:14:24.902Z,14.80
2022-08-27T04:16:57.605Z,15.10
2022-08-27T04:19:30.528Z,15.60
2022-08-27T04:22:07.377Z,13.00
2022-08-27T04:24:38.383Z,14.00
2022-08-27T04:27:07.840Z,14.70
2022-08-27T04:29:36.630Z,13.80
2022-08-27T04:32:05.523Z,16.50
2022-08-27T04:34:34.411Z,18.90
2022-08-27T04:37:04.328Z,16.00
2022-08-27T04:39:33.935Z,16.30
2022-08-27T04:42:03.460Z,20.90
2022-08-27T04:44:34.145Z,20.00
2022-08-27T04:47:06.570Z,19.50
2022-08-27T04:49:37.079Z,18.10
2022-08-27T04:52:06.995Z,19.70
2022-08-27T04:54:36.910Z,16.30
2022-08-27T04:57:07.538Z,17.60
2022-08-27T04:59:39.227Z,17.20
2022-08-27T05:02:11.881Z,16.40
2022-08-27T05:04:41.818Z,18.70
2022-08-27T05:07:11.406Z,21.20
2022-08-27T05:09:40.295Z,23.30
2022-08-27T05:12:09.596Z,21.80
2022-08-27T05:14:38.796Z,26.20
2022-08-27T05:17:07.484Z,22.40
2022-08-27T05:19:36.274Z,21.00
2022-08-27T05:22:05.163Z,27.30
2022-08-27T05:24:34.055Z,26.60
2022-08-27T05:27:02.951Z,27.30
2022-08-27T05:29:32.145Z,31.60
2022-08-27T05:32:00.843Z,28.10
2022-08-27T05:34:31.159Z,31.10
2022-08-27T05:37:00.663Z,31.20
2022-08-27T05:39:29.555Z,28.50
2022-08-27T05:41:58.446Z,30.20
2022-08-27T05:44:42.578Z,26.80
2022-08-27T05:47:11.799Z,27.80
2022-08-27T05:49:40.687Z,24.80
2022-08-27T05:52:12.095Z,25.10
2022-08-27T05:54:40.824Z,26.80
2022-08-27T05:57:09.720Z,29.70
2022-08-27T05:59:56.939Z,31.80
2022-08-27T06:02:26.429Z,26.90
2022-08-27T06:04:55.376Z,30.20
2022-08-27T06:07:24.125Z,28.70
2022-08-27T06:09:52.812Z,27.80
2022-08-27T06:12:27.140Z,29.20
2022-08-27T06:14:58.582Z,27.50
2022-08-27T06:17:27.884Z,27.60
2022-08-27T06:19:58.133Z,26.40
2022-08-27T06:22:26.796Z,28.80
2022-08-27T06:24:55.787Z,26.90
2022-08-27T06:27:24.576Z,26.00
2022-08-27T06:29:53.366Z,28.70
2022-08-27T06:32:24.942Z,26.80
2022-08-27T06:34:54.124Z,29.70
2022-08-27T06:37:23.337Z,24.60
2022-08-27T06:39:52.336Z,23.10
2022-08-27T06:42:21.107Z,26.10
2022-08-27T06:44:52.761Z,21.80
2022-08-27T06:47:21.751Z,26.80
2022-08-27T06:49:50.437Z,24.80
2022-08-27T06:52:19.436Z,26.00
2022-08-27T06:54:48.737Z,25.60
2022-08-27T06:57:18.135Z,26.60
2022-08-27T06:59:46.937Z,25.70
2022-08-27T07:02:15.843Z,24.20
2022-08-27T07:04:45.019Z,23.80
2022-08-27T07:07:14.656Z,22.10
2022-08-27T07:10:01.437Z,22.60
2022-08-27T07:12:33.480Z,22.00
2022-08-27T07:15:02.404Z,22.50
2022-08-27T07:17:31.491Z,26.50
2022-08-27T07:20:00.292Z,26.10
2022-08-27T07:22:30.195Z,27.80
2022-08-27T07:24:58.882Z,26.20
2022-08-27T07:27:27.673Z,24.70
2022-08-27T07:29:56.563Z,24.60
2022-08-27T07:32:30.592Z,25.10
2022-08-27T07:35:01.002Z,27.20
2022-08-27T07:37:35.149Z,27.30
2022-08-27T07:40:07.724Z,27.00
2022-08-27T07:42:55.225Z,28.60
2022-08-27T07:45:24.217Z,29.20
2022-08-27T07:47:53.730Z,27.60
2022-08-27T07:50:23.857Z,27.50
2022-08-27T07:52:52.738Z,27.60
2022-08-27T07:55:21.628Z,27.80
2022-08-27T07:57:50.620Z,32.10
2022-08-27T08:00:21.972Z,29.60
2022-08-27T08:02:50.816Z,28.90
2022-08-27T08:05:19.881Z,28.70
2022-08-27T08:07:48.748Z,27.70
2022-08-27T08:10:17.562Z,29.00
2022-08-27T08:12:46.636Z,27.10
2022-08-27T08:15:17.690Z,27.80
2022-08-27T08:17:47.062Z,27.60
2022-08-27T08:20:24.123Z,27.50
2022-08-27T08:22:59.816Z,33.40
2022-08-27T08:25:29.522Z,29.90
2022-08-27T08:28:08.143Z,23.70
2022-08-27T08:30:37.814Z,27.30
2022-08-27T08:33:06.857Z,25.00
2022-08-27T08:35:41.194Z,28.00
2022-08-27T08:38:11.390Z,25.50
2022-08-27T08:40:46.349Z,24.70
2022-08-27T08:43:44.407Z,25.70
2022-08-27T08:46:30.856Z,21.20
2022-08-27T08:49:06.029Z,25.20
2022-08-27T08:51:42.683Z,25.70
2022-08-27T08:54:20.266Z,26.50
2022-08-27T08:57:00.261Z,23.50
2022-08-27T08:59:36.938Z,22.50
2022-08-27T09:02:13.142Z,23.10
2022-08-27T09:04:44.147Z,21.60
2022-08-27T09:07:48.909Z,20.80
2022-08-27T09:10:41.831Z,23.20
2022-08-27T09:13:43.902Z,24.00
2022-08-27T09:16:13.109Z,23.60
2022-08-27T09:18:45.486Z,24.70
2022-08-27T09:21:54.708Z,22.50
2022-08-27T09:24:56.274Z,21.70
2022-08-27T09:27:26.284Z,23.50
2022-08-27T09:29:57.891Z,21.80
2022-08-27T09:32:35.125Z,23.80
2022-08-27T09:35:12.107Z,24.20
2022-08-27T09:37:48.423Z,22.60
2022-08-27T09:40:26.927Z,20.50
2022-08-27T09:43:16.466Z,20.70
2022-08-27T09:46:00.089Z,18.40
2022-08-27T09:48:38.847Z,21.20
2022-08-27T09:51:15.020Z,19.30
2022-08-27T09:54:02.725Z,21.00
2022-08-27T09:56:39.599Z,19.50
2022-08-27T09:59:20.978Z,19.30
2022-08-27T10:01:53.210Z,19.70
2022-08-27T10:04:28.955Z,17.50
2022-08-27T10:06:58.416Z,18.20
2022-08-27T10:09:35.214Z,17.70
2022-08-27T10:12:55.592Z,19.20
2022-08-27T10:15:30.741Z,18.20
2022-08-27T10:19:09.045Z,17.20
2022-08-27T10:21:51.556Z,17.60
2022-08-27T10:24:39.391Z,18.50
2022-08-27T10:27:21.083Z,18.80
2022-08-27T10:30:14.510Z,21.30
2022-08-27T10:33:22.810Z,18.90
2022-08-27T10:36:12.957Z,17.00
2022-08-27T10:38:56.089Z,18.40
2022-08-27T10:41:47.093Z,19.20
2022-08-27T10:44:31.552Z,18.10
2022-08-27T10:47:06.381Z,17.70
2022-08-27T10:50:06.197Z,21.30
2022-08-27T10:52:54.647Z,22.20
2022-08-27T10:55:33.166Z,19.80
2022-08-27T10:58:17.314Z,19.80
2022-08-27T11:01:13.900Z,16.70
2022-08-27T11:04:01.083Z,17.90
2022-08-27T11:06:40.937Z,18.70
2022-08-27T11:09:33.369Z,22.20
2022-08-27T11:12:14.892Z,21.70
2022-08-27T11:15:26.145Z,20.10
2022-08-27T11:18:05.345Z,18.80
2022-08-27T11:21:05.396Z,18.80
2022-08-27T11:23:59.497Z,20.30
2022-08-27T11:26:32.830Z,18.80
2022-08-27T11:29:11.194Z,19.60
2022-08-27T11:31:54.798Z,19.80
2022-08-27T11:34:40.016Z,20.00
2022-08-27T11:37:38.693Z,18.50
2022-08-27T11:40:45.451Z,18.80
2022-08-27T11:43:18.813Z,19.10
2022-08-27T11:46:25.102Z,18.50
2022-08-27T11:49:03.695Z,19.50
2022-08-27T11:51:36.342Z,19.30
2022-08-27T11:54:10.147Z,21.00
2022-08-27T11:56:47.741Z,17.40
2022-08-27T11:59:28.729Z,18.50
2022-08-27T12:02:23.204Z,19.40
2022-08-27T12:04:52.779Z,18.50
2022-08-27T12:07:22.728Z,17.90
2022-08-27T12:10:17.733Z,16.40
2022-08-27T12:13:20.707Z,19.10
2022-08-27T12:16:04.916Z,16.80
2022-08-27T12:18:39.601Z,15.60
2022-08-27T12:21:26.617Z,18.50
2022-08-27T12:24:42.407Z,19.50
2022-08-27T12:27:26.453Z,18.10
2022-08-27T12:30:23.301Z,20.10
2022-08-27T12:32:53.523Z,18.80
2022-08-27T12:35:44.944Z,18.50
2022-08-27T12:38:33.972Z,18.80
2022-08-27T12:41:09.406Z,17.00
2022-08-27T12:43:43.877Z,20.00
2022-08-27T12:46:18.258Z,18.20
2022-08-27T12:49:04.556Z,18.70
2022-08-27T12:51:49.366Z,19.10
2022-08-27T12:54:38.448Z,18.30
2022-08-27T12:57:25.237Z,19.10
2022-08-27T13:00:15.127Z,18.10
2022-08-27T13:03:24.274Z,17.10
2022-08-27T13:05:57.859Z,17.60
2022-08-27T13:08:35.051Z,16.10
2022-08-27T13:11:29.945Z,17.10
2022-08-27T13:14:27.461Z,16.10
2022-08-27T13:17:07.460Z,18.40
2022-08-27T13:20:00.552Z,18.30
2022-08-27T13:22:39.191Z,16.00
2022-08-27T13:25:37.010Z,18.20
2022-08-27T13:28:14.094Z,17.00
2022-08-27T13:30:48.063Z,20.70
2022-08-27T13:33:28.839Z,17.20
2022-08-27T13:35:58.454Z,18.50
2022-08-27T13:38:37.270Z,18.30
2022-08-27T13:41:30.681Z,18.70
2022-08-27T13:44:12.796Z,17.00
2022-08-27T13:47:04.107Z,17.10
2022-08-27T13:49:40.238Z,24.90
2022-08-27T13:52:33.519Z,47.60
2022-08-27T13:55:15.926Z,22.60
2022-08-27T13:57:51.906Z,17.30
2022-08-27T14:00:32.506Z,16.40
2022-08-27T14:03:02.639Z,36.00
2022-08-27T14:05:37.300Z,22.60
2022-08-27T14:08:18.191Z,25.60
2022-08-27T14:11:00.274Z,20.70
2022-08-27T14:13:31.951Z,15.90
2022-08-27T14:16:01.175Z,17.90
2022-08-27T14:18:57.937Z,15.80
2022-08-27T14:21:26.251Z,18.10
2022-08-27T14:23:56.577Z,18.60
2022-08-27T14:26:27.238Z,16.20
2022-08-27T14:28:57.290Z,15.70
2022-08-27T14:31:27.309Z,15.40
2022-08-27T14:33:56.547Z,15.10
2022-08-27T14:36:29.771Z,16.20
2022-08-27T14:38:59.760Z,15.20
2022-08-27T14:41:29.263Z,16.60
2022-08-27T14:44:02.872Z,15.50
2022-08-27T14:46:41.284Z,16.20
2022-08-27T14:49:15.595Z,14.90
2022-08-27T14:51:46.475Z,15.90
2022-08-27T14:54:15.741Z,13.70
2022-08-27T14:56:44.930Z,16.20
2022-08-27T14:59:13.829Z,17.40
2022-08-27T15:01:43.305Z,16.80
2022-08-27T15:04:12.740Z,21.90
2022-08-27T15:06:41.731Z,18.90
2022-08-27T15:09:11.245Z,17.70
2022-08-27T15:11:42.283Z,15.30
2022-08-27T15:14:29.603Z,18.20
2022-08-27T15:17:00.435Z,16.00
2022-08-27T15:19:30.607Z,18.50
2022-08-27T15:22:20.907Z,16.20
2022-08-27T15:24:56.902Z,15.20
2022-08-27T15:27:32.165Z,17.60
2022-08-27T15:30:11.648Z,14.60
2022-08-27T15:32:49.364Z,16.80
2022-08-27T15:35:26.762Z,12.90
2022-08-27T15:37:57.913Z,14.70
2022-08-27T15:40:30.036Z,18.10
2022-08-27T15:43:06.671Z,14.10
2022-08-27T15:45:36.955Z,14.40
2022-08-27T15:48:06.316Z,16.50
2022-08-27T15:50:35.296Z,14.50
2022-08-27T15:53:09.097Z,17.60
2022-08-27T15:55:43.436Z,15.30
2022-08-27T15:58:13.404Z,14.70
2022-08-27T16:00:43.445Z,14.60
2022-08-27T16:03:16.054Z,13.80
2022-08-27T16:05:47.428Z,15.20
2022-08-27T16:08:16.162Z,15.50
2022-08-27T16:10:44.954Z,15.50
2022-08-27T16:13:13.740Z,15.00
2022-08-27T16:15:42.681Z,14.90
2022-08-27T16:18:12.564Z,16.40
2022-08-27T16:20:42.368Z,18.20
2022-08-27T16:23:11.457Z,18.80
2022-08-27T16:25:40.816Z,15.10
2022-08-27T16:28:10.719Z,15.20
2022-08-27T16:30:41.514Z,16.40
2022-08-27T16:33:11.124Z,15.80
2022-08-27T16:35:40.321Z,16.20
2022-08-27T16:38:10.211Z,20.40
2022-08-27T16:40:46.481Z,17.80
2022-08-27T16:43:21.313Z,19.90
2022-08-27T16:45:53.105Z,23.90
2022-08-27T16:48:42.264Z,19.10
2022-08-27T16:51:32.631Z,18.90
2022-08-27T16:54:05.806Z,15.80
2022-08-27T16:56:37.722Z,16.90
2022-08-27T16:59:08.073Z,17.50
2022-08-27T17:01:37.254Z,15.70
2022-08-27T17:04:12.047Z,16.50
2022-08-27T17:06:46.177Z,18.50
2022-08-27T17:09:15.782Z,15.20
2022-08-27T17:11:57.281Z,18.80
2022-08-27T17:14:27.187Z,20.60
2022-08-27T17:16:56.076Z,19.20
2022-08-27T17:19:26.503Z,24.40
2022-08-27T17:21:55.498Z,23.00
2022-08-27T17:24:24.596Z,17.20
2022-08-27T17:26:53.622Z,17.70
2022-08-27T17:29:22.594Z,19.60
2022-08-27T17:31:51.479Z,21.30
2022-08-27T17:34:24.959Z,17.40
2022-08-27T17:36:54.500Z,15.50
2022-08-27T17:39:23.475Z,17.10
2022-08-27T17:41:53.517Z,14.60
2022-08-27T17:44:28.015Z,14.00
2022-08-27T17:47:01.160Z,16.60
2022-08-27T17:49:31.393Z,14.20
2022-08-27T17:52:13.175Z,16.00
2022-08-27T17:54:51.263Z,17.40
2022-08-27T17:57:28.036Z,17.80
2022-08-27T17:59:59.483Z,18.10
2022-08-27T18:02:39.252Z,18.30
2022-08-27T18:05:10.720Z,21.80
2022-08-27T18:07:41.961Z,18.10
2022-08-27T18:10:15.410Z,18.50
2022-08-27T18:12:45.262Z,18.70
2022-08-27T18:15:31.350Z,19.40
2022-08-27T18:18:00.715Z,21.10
2022-08-27T18:20:31.569Z,16.00
2022-08-27T18:23:00.443Z,18.30
2022-08-27T18:25:35.788Z,17.80
2022-08-27T18:28:09.329Z,16.70
2022-08-27T18:30:43.682Z,16.90
2022-08-27T18:33:13.726Z,15.60
2022-08-27T18:35:42.822Z,17.30
2022-08-27T18:38:11.618Z,15.80
2022-08-27T18:40:47.542Z,17.90
2022-08-27T18:43:18.466Z,17.70
2022-08-27T18:45:47.525Z,15.00
2022-08-27T18:48:22.476Z,15.30
2022-08-27T18:50:58.831Z,16.30
2022-08-27T18:53:34.656Z,15.70
2022-08-27T18:56:05.494Z,15.20
2022-08-27T18:58:34.569Z,16.20
2022-08-27T19:01:03.771Z,17.80
2022-08-27T19:03:37.724Z,19.40
2022-08-27T19:06:09.696Z,18.20
2022-08-27T19:08:40.405Z,16.50
2022-08-27T19:11:10.010Z,19.50
2022-08-27T19:13:38.898Z,16.80
2022-08-27T19:16:14.789Z,15.40
2022-08-27T19:18:44.243Z,17.90
2022-08-27T19:21:14.184Z,13.50
2022-08-27T19:23:45.353Z,15.10
2022-08-27T19:26:24.560Z,18.10
2022-08-27T19:28:56.108Z,20.30
2022-08-27T19:31:27.009Z,16.90
2022-08-27T19:34:00.529Z,17.50
2022-08-27T19:36:29.363Z,16.60
2022-08-27T19:38:59.148Z,15.80
2022-08-27T19:41:31.540Z,17.00
2022-08-27T19:44:03.014Z,19.00
2022-08-27T19:46:35.557Z,19.10
2022-08-27T19:49:05.261Z,19.80
2022-08-27T19:51:35.382Z,20.60
2022-08-27T19:54:04.863Z,20.80
2022-08-27T19:56:36.376Z,18.40
2022-08-27T19:59:17.533Z,20.00
2022-08-27T20:01:53.839Z,16.80
2022-08-27T20:04:30.350Z,18.70
2022-08-27T20:07:04.181Z,18.10
2022-08-27T20:09:35.981Z,16.10
2022-08-27T20:12:08.129Z,16.60
2022-08-27T20:14:38.030Z,16.80
2022-08-27T20:17:10.378Z,15.10
2022-08-27T20:19:41.925Z,15.10
2022-08-27T20:22:11.849Z,16.50
2022-08-27T20:24:40.432Z,15.80
2022-08-27T20:27:09.119Z,18.00
2022-08-27T20:29:37.807Z,15.90
2022-08-27T20:32:09.541Z,15.30
2022-08-27T20:34:41.803Z,13.80
2022-08-27T20:37:11.356Z,13.60
2022-08-27T20:39:41.155Z,16.50
2022-08-27T20:42:12.646Z,15.90
2022-08-27T20:44:43.691Z,15.40
2022-08-27T20:47:15.152Z,14.30
2022-08-27T20:49:45.835Z,15.70
2022-08-27T20:52:18.084Z,16.40
2022-08-27T20:54:48.021Z,13.90
2022-08-27T20:57:19.066Z,13.90
2022-08-27T21:00:07.001Z,15.60
2022-08-27T21:02:35.770Z,15.60
2022-08-27T21:05:16.496Z,15.50
2022-08-27T21:07:48.832Z,15.20
2022-08-27T21:10:18.440Z,15.90
2022-08-27T21:12:47.947Z,15.30
2022-08-27T21:15:17.324Z,17.40
2022-08-27T21:17:45.935Z,20.30
2022-08-27T21:20:14.780Z,17.30
2022-08-27T21:22:44.645Z,18.00
2022-08-27T21:25:15.061Z,21.70
2022-08-27T21:27:43.963Z,20.70
2022-08-27T21:30:14.913Z,18.80
2022-08-27T21:32:43.588Z,19.40
2022-08-27T21:35:12.279Z,17.20
2022-08-27T21:37:42.254Z,21.00
2022-08-27T21:40:11.579Z,21.40
2022-08-27T21:42:40.379Z,19.10
2022-08-27T21:45:09.591Z,22.40
2022-08-27T21:47:39.397Z,20.70
2022-08-27T21:50:10.141Z,20.70
2022-08-27T21:52:38.921Z,20.20
2022-08-27T21:55:08.878Z,21.60
2022-08-27T21:57:37.524Z,20.20
2022-08-27T22:00:25.975Z,21.80
2022-08-27T22:02:56.376Z,21.50
2022-08-27T22:05:25.190Z,21.20
2022-08-27T22:07:53.876Z,22.70
2022-08-27T22:10:22.766Z,18.90
2022-08-27T22:12:51.451Z,20.10
2022-08-27T22:15:24.541Z,24.60
2022-08-27T22:17:53.331Z,20.10
2022-08-27T22:20:22.610Z,22.30
2022-08-27T22:22:52.552Z,21.30
2022-08-27T22:25:21.440Z,20.30
2022-08-27T22:27:50.127Z,22.30
2022-08-27T22:30:18.977Z,20.00
2022-08-27T22:32:47.908Z,19.40
2022-08-27T22:35:18.541Z,20.90
2022-08-27T22:37:47.861Z,24.20
2022-08-27T22:40:22.563Z,21.50
2022-08-27T22:42:52.487Z,23.90
2022-08-27T22:45:22.088Z,20.60
2022-08-27T22:47:50.884Z,20.00
2022-08-27T22:50:20.492Z,22.40
2022-08-27T22:52:49.793Z,20.90
2022-08-27T22:55:23.498Z,21.60
2022-08-27T22:57:54.850Z,19.10
2022-08-27T23:00:32.203Z,21.60
2022-08-27T23:03:02.469Z,22.20
2022-08-27T23:05:41.891Z,18.30
2022-08-27T23:08:13.439Z,19.50
2022-08-27T23:10:43.577Z,22.20
2022-08-27T23:13:13.721Z,24.20
2022-08-27T23:15:43.045Z,18.50
2022-08-27T23:18:12.510Z,21.00
2022-08-27T23:20:41.905Z,21.80
2022-08-27T23:23:10.836Z,21.20
2022-08-27T23:25:58.326Z,20.20
2022-08-27T23:28:27.041Z,21.30
2022-08-27T23:30:55.933Z,21.70
2022-08-27T23:33:24.694Z,18.80
2022-08-27T23:35:53.380Z,23.40
2022-08-27T23:38:22.602Z,20.80
2022-08-27T23:40:52.699Z,19.90
2022-08-27T23:43:22.103Z,19.60
2022-08-27T23:45:52.328Z,20.80
2022-08-27T23:48:21.114Z,23.40
2022-08-27T23:50:49.801Z,23.80
2022-08-27T23:53:18.803Z,21.20
2022-08-27T23:55:47.892Z,19.60
2022-08-27T23:58:16.494Z,20.70
